Time;durP1;ratioP1;P1;durP2;ratioP2;P2;SDS_P1;SDS_P2;PMS_P1;PMS_P2;Temp;Humidity;BMP_temperature;BMP_pressure;BME280_temperature;BME280_humidity;BME280_pressure;Samples;Min_cycle;Max_cycle;Signal;HPM_P1;HPM_P2
2023/01/06 00:02:35;;;;;;;47.67;12.48;;;10.00;99.90;;;;;;5111628;28;20113;-84
2023/01/06 00:05:21;;;;;;;45.97;12.68;;;10.00;99.90;;;;;;5095881;28;20051;-87
2023/01/06 00:08:07;;;;;;;45.30;10.43;;;10.00;99.90;;;;;;5098696;28;20561;-80
2023/01/06 00:10:53;;;;;;;39.05;10.63;;;10.00;99.90;;;;;;5120690;28;20062;-87
2023/01/06 00:13:40;;;;;;;39.95;9.38;;;10.00;99.90;;;;;;5108077;28;20051;-86
2023/01/06 00:16:26;;;;;;;35.72;9.35;;;10.00;99.90;;;;;;5112576;28;20130;-82
2023/01/06 00:19:12;;;;;;;36.60;8.63;;;10.00;99.90;;;;;;5091703;28;20055;-78
2023/01/06 00:21:59;;;;;;;44.90;10.23;;;10.00;99.90;;;;;;5110740;28;20528;-78
2023/01/06 00:24:45;;;;;;;44.55;8.50;;;10.00;99.90;;;;;;5086342;28;20090;-83
2023/01/06 00:27:31;;;;;;;42.40;7.25;;;10.00;99.90;;;;;;5114997;28;20073;-81
2023/01/06 00:30:17;;;;;;;32.30;8.35;;;10.00;99.90;;;;;;5092921;28;20507;-81
2023/01/06 00:33:03;;;;;;;46.55;7.30;;;10.00;99.90;;;;;;5110978;28;20127;-80
2023/01/06 00:35:50;;;;;;;32.20;7.38;;;10.00;99.90;;;;;;5092548;28;20526;-79
2023/01/06 00:38:37;;;;;;;38.05;6.93;;;10.00;99.90;;;;;;5096462;28;20120;-81
2023/01/06 00:44:28;;;;;;;32.70;6.30;;;10.10;99.90;;;;;;5109639;28;20068;-83
2023/01/06 00:47:16;;;;;;;26.30;6.43;;;10.10;99.90;;;;;;5092541;28;20499;-88
2023/01/06 00:50:02;;;;;;;31.27;5.75;;;10.10;99.90;;;;;;5110840;28;20499;-86
2023/01/06 00:52:49;;;;;;;28.08;5.78;;;10.10;99.90;;;;;;5092144;28;20070;-88
2023/01/06 00:55:35;;;;;;;33.15;7.95;;;10.10;99.90;;;;;;5115318;28;20106;-86
2023/01/06 00:58:21;;;;;;;24.20;4.90;;;10.10;99.90;;;;;;5119952;28;20082;-81
2023/01/06 01:01:09;;;;;;;24.23;5.40;;;10.10;99.90;;;;;;5114750;28;20056;-79
2023/01/06 01:03:55;;;;;;;25.25;5.88;;;10.10;99.90;;;;;;5111650;28;20039;-79
2023/01/06 01:06:43;;;;;;;23.95;5.80;;;10.10;99.90;;;;;;5093942;28;20051;-83
2023/01/06 01:09:30;;;;;;;25.65;5.70;;;10.10;99.90;;;;;;5100598;28;20052;-82
2023/01/06 01:12:17;;;;;;;23.85;6.05;;;10.10;99.90;;;;;;5092750;28;20503;-85
2023/01/06 01:15:03;;;;;;;20.45;6.00;;;10.10;99.90;;;;;;5091927;28;20438;-80
2023/01/06 01:17:49;;;;;;;23.88;4.70;;;10.10;99.90;;;;;;5109483;28;20433;-80
2023/01/06 01:20:35;;;;;;;20.38;5.10;;;10.10;99.90;;;;;;5095795;28;20047;-83
2023/01/06 01:23:22;;;;;;;22.90;5.28;;;10.10;99.90;;;;;;5109818;28;20054;-86
2023/01/06 01:26:08;;;;;;;16.67;4.53;;;10.10;99.90;;;;;;5095025;28;20085;-83
2023/01/06 01:28:54;;;;;;;22.85;4.75;;;10.10;99.90;;;;;;5109835;28;20431;-82
2023/01/06 01:31:41;;;;;;;25.10;5.10;;;10.10;99.90;;;;;;5111042;28;20410;-88
2023/01/06 01:34:28;;;;;;;14.50;4.10;;;10.20;99.90;;;;;;5117727;28;20055;-87
2023/01/06 01:37:14;;;;;;;25.52;4.60;;;10.10;99.90;;;;;;5111486;28;20403;-83
2023/01/06 01:40:01;;;;;;;23.20;4.53;;;10.10;99.90;;;;;;5100932;28;20092;-82
2023/01/06 01:42:47;;;;;;;24.10;5.18;;;10.10;99.90;;;;;;5118880;28;20444;-78
2023/01/06 01:45:33;;;;;;;25.13;6.57;;;10.10;99.90;;;;;;5116849;28;20051;-81
2023/01/06 01:48:28;;;;;;;22.08;4.65;;;10.10;99.90;;;;;;5114515;28;20196;-79
2023/01/06 01:51:18;;;;;;;17.30;3.95;;;10.10;99.90;;;;;;5113239;28;20051;-81
2023/01/06 01:54:09;;;;;;;25.30;4.30;;;10.00;99.90;;;;;;5113912;28;20082;-79
2023/01/06 01:57:18;;;;;;;16.27;4.30;;;10.10;99.90;;;;;;5095979;28;20047;-80
2023/01/06 02:00:07;;;;;;;44.15;6.47;;;10.00;99.90;;;;;;5114917;28;20173;-79
2023/01/06 02:02:54;;;;;;;27.65;5.30;;;10.00;99.90;;;;;;5095887;28;20047;-78
2023/01/06 02:05:45;;;;;;;17.75;4.78;;;10.00;99.90;;;;;;5114125;28;20104;-81
2023/01/06 02:08:44;;;;;;;19.25;5.10;;;10.00;99.90;;;;;;5113331;28;20055;-79
2023/01/06 02:11:33;;;;;;;21.67;4.30;;;10.00;99.90;;;;;;5095459;28;20130;-83
2023/01/06 02:14:23;;;;;;;18.77;4.10;;;9.90;99.90;;;;;;5115068;28;20048;-85
2023/01/06 02:17:24;;;;;;;15.15;3.45;;;9.90;99.90;;;;;;5118447;28;20796;-86
2023/01/06 02:20:28;;;;;;;17.15;4.45;;;10.00;99.90;;;;;;5122280;28;20511;-80
2023/01/06 02:23:33;;;;;;;20.98;4.22;;;9.90;99.90;;;;;;5095595;28;20054;-80
2023/01/06 02:26:57;;;;;;;19.15;3.42;;;9.90;99.90;;;;;;5100574;28;20051;-80
2023/01/06 02:30:42;;;;;;;15.93;2.88;;;10.00;99.90;;;;;;5096543;28;20052;-79
2023/01/06 02:33:31;;;;;;;13.38;4.10;;;9.90;99.90;;;;;;5019051;28;20065;-78
2023/01/06 02:37:02;;;;;;;16.30;2.55;;;9.90;99.90;;;;;;5112593;28;20048;-82
2023/01/06 02:39:51;;;;;;;12.90;2.83;;;9.90;99.90;;;;;;5083790;28;20056;-81
2023/01/06 02:42:59;;;;;;;14.68;3.22;;;9.90;99.90;;;;;;5112735;28;20052;-81
2023/01/06 02:46:04;;;;;;;13.93;3.13;;;9.90;99.90;;;;;;5095678;28;20051;-80
2023/01/06 02:49:07;;;;;;;17.13;3.47;;;9.90;99.90;;;;;;5095636;28;20136;-80
2023/01/06 02:52:29;;;;;;;21.60;4.43;;;9.90;99.90;;;;;;5096832;28;20107;-79
2023/01/06 02:55:32;;;;;;;21.23;3.28;;;9.90;99.90;;;;;;5068561;28;20138;-80
2023/01/06 02:58:44;;;;;;;16.80;4.95;;;9.90;99.90;;;;;;5095760;28;20047;-81
2023/01/06 03:01:41;;;;;;;15.15;3.20;;;9.90;99.90;;;;;;5118244;28;20047;-81
2023/01/06 03:04:36;;;;;;;12.15;2.75;;;9.90;99.90;;;;;;5111623;28;20059;-80
2023/01/06 03:07:25;;;;;;;12.25;2.55;;;9.90;99.90;;;;;;5094101;28;20044;-80
2023/01/06 03:10:15;;;;;;;16.48;3.00;;;9.90;99.90;;;;;;5094955;28;20047;-78
2023/01/06 03:13:12;;;;;;;8.15;1.85;;;10.00;99.90;;;;;;5112279;28;20415;-81
2023/01/06 03:15:58;;;;;;;11.68;2.70;;;10.00;99.90;;;;;;5092200;28;20825;-81
2023/01/06 03:18:46;;;;;;;16.50;3.40;;;9.90;99.90;;;;;;5111609;28;20507;-79
2023/01/06 03:21:38;;;;;;;13.88;2.28;;;9.90;99.90;;;;;;5111158;28;20051;-79
2023/01/06 03:24:24;;;;;;;11.32;3.08;;;9.90;99.90;;;;;;5112171;28;20043;-81
2023/01/06 03:27:11;;;;;;;14.40;3.25;;;9.90;99.90;;;;;;5111286;28;20550;-80
2023/01/06 03:29:58;;;;;;;10.30;2.50;;;9.90;99.90;;;;;;5092561;28;20495;-79
2023/01/06 03:33:07;;;;;;;7.00;2.70;;;9.90;99.90;;;;;;5093823;28;20059;-79
2023/01/06 03:36:27;;;;;;;6.10;1.92;;;9.90;99.90;;;;;;5093195;28;20052;-80
2023/01/06 03:39:32;;;;;;;10.68;2.75;;;10.00;99.90;;;;;;5114290;28;20440;-84
2023/01/06 03:45:44;;;;;;;11.55;2.70;;;10.00;99.90;;;;;;5092794;28;20100;-82
2023/01/06 03:48:58;;;;;;;15.23;3.33;;;10.00;99.90;;;;;;5096726;28;20044;-79
2023/01/06 03:51:58;;;;;;;12.23;5.00;;;10.00;99.90;;;;;;5092858;28;20089;-80
2023/01/06 03:54:57;;;;;;;8.60;3.22;;;10.00;99.90;;;;;;5092677;28;20052;-79
2023/01/06 03:57:47;;;;;;;10.75;4.10;;;10.00;99.90;;;;;;5109919;28;20048;-82
2023/01/06 04:00:36;;;;;;;12.13;5.18;;;10.00;99.90;;;;;;5110579;28;20051;-79
2023/01/06 04:03:25;;;;;;;15.50;5.63;;;10.00;99.90;;;;;;5111238;28;20040;-81
2023/01/06 04:06:11;;;;;;;9.23;5.60;;;10.00;99.90;;;;;;5111761;28;20052;-79
2023/01/06 04:08:57;;;;;;;13.52;6.15;;;10.00;99.90;;;;;;5095466;28;20043;-80
2023/01/06 04:14:48;;;;;;;10.48;5.40;;;10.10;99.90;;;;;;5109426;28;20065;-81
2023/01/06 04:17:35;;;;;;;13.10;5.80;;;10.10;99.90;;;;;;5079034;28;20047;-87
2023/01/06 04:20:28;;;;;;;12.27;5.95;;;10.20;99.90;;;;;;5114780;28;20055;-80
2023/01/06 04:23:14;;;;;;;9.48;5.90;;;10.20;99.90;;;;;;5116884;28;20661;-80
2023/01/06 04:26:00;;;;;;;8.13;5.22;;;10.20;99.90;;;;;;5111665;28;20059;-85
2023/01/06 04:28:46;;;;;;;9.27;5.53;;;10.10;99.90;;;;;;5093110;28;20083;-80
2023/01/06 04:31:32;;;;;;;10.98;6.47;;;10.10;99.90;;;;;;5110308;28;20051;-80
2023/01/06 04:34:19;;;;;;;11.52;6.18;;;10.20;99.90;;;;;;5092043;28;20040;-86
2023/01/06 04:37:05;;;;;;;10.05;6.03;;;10.20;99.90;;;;;;5092041;28;20058;-78
2023/01/06 04:39:51;;;;;;;9.40;5.43;;;10.10;99.90;;;;;;5111829;28;20507;-84
2023/01/06 04:45:43;;;;;;;11.90;4.80;;;10.20;99.90;;;;;;5109405;28;20047;-84
2023/01/06 04:48:29;;;;;;;9.02;5.65;;;10.20;99.90;;;;;;5109032;28;20066;-86
2023/01/06 04:51:15;;;;;;;9.45;5.63;;;10.20;99.90;;;;;;5092265;28;20130;-82
2023/01/06 04:54:01;;;;;;;9.23;5.07;;;10.20;99.90;;;;;;5109353;28;20052;-80
2023/01/06 04:56:48;;;;;;;7.55;4.68;;;10.20;99.90;;;;;;5110418;28;20113;-80
2023/01/06 04:59:34;;;;;;;9.10;4.53;;;10.20;99.90;;;;;;5110413;28;20059;-82
2023/01/06 05:02:20;;;;;;;9.93;4.97;;;10.20;99.90;;;;;;5109695;28;20138;-82
2023/01/06 05:05:07;;;;;;;7.45;4.03;;;10.20;99.90;;;;;;5092139;28;20043;-82
2023/01/06 05:07:54;;;;;;;7.65;3.35;;;10.20;99.90;;;;;;5092192;28;20052;-80
2023/01/06 05:10:40;;;;;;;10.50;3.75;;;10.20;99.90;;;;;;5111997;28;20052;-78
2023/01/06 05:13:27;;;;;;;8.88;3.50;;;10.20;99.90;;;;;;5099329;28;20078;-85
2023/01/06 05:16:21;;;;;;;8.38;3.88;;;10.20;99.90;;;;;;5114671;28;20047;-81
2023/01/06 05:19:08;;;;;;;9.48;4.55;;;10.20;99.90;;;;;;5091610;28;20044;-81
2023/01/06 05:21:54;;;;;;;8.90;2.70;;;10.20;99.90;;;;;;5096276;28;20047;-83
2023/01/06 05:24:40;;;;;;;10.50;3.33;;;10.20;99.90;;;;;;5094521;28;20040;-83
2023/01/06 05:27:26;;;;;;;11.13;3.20;;;10.10;99.90;;;;;;5110643;28;20407;-80
2023/01/06 05:30:13;;;;;;;8.40;3.90;;;10.10;99.90;;;;;;5110549;28;20066;-85
2023/01/06 05:32:59;;;;;;;7.68;3.80;;;10.10;99.90;;;;;;5091363;28;20807;-81
2023/01/06 05:35:45;;;;;;;5.43;2.90;;;10.10;99.90;;;;;;5109466;28;20409;-79
2023/01/06 05:38:31;;;;;;;9.52;3.70;;;10.00;99.90;;;;;;5092931;28;20131;-81
2023/01/06 05:41:18;;;;;;;12.65;4.15;;;10.00;99.90;;;;;;5110421;28;20085;-80
2023/01/06 05:44:04;;;;;;;11.60;4.22;;;9.90;99.90;;;;;;5093017;28;20483;-82
2023/01/06 05:46:50;;;;;;;9.40;4.95;;;9.80;99.90;;;;;;5109310;28;20040;-84
2023/01/06 05:49:36;;;;;;;11.52;5.63;;;9.70;99.90;;;;;;5091137;28;20044;-81
2023/01/06 05:52:22;;;;;;;11.52;4.78;;;9.70;99.90;;;;;;5094806;28;20047;-80
2023/01/06 05:55:09;;;;;;;13.13;5.80;;;9.60;99.90;;;;;;5099134;28;20054;-78
2023/01/06 05:57:55;;;;;;;9.70;4.72;;;9.50;99.90;;;;;;5119917;28;20051;-82
2023/01/06 06:00:41;;;;;;;12.35;5.60;;;9.60;99.90;;;;;;5120638;28;20054;-80
2023/01/06 06:03:27;;;;;;;12.32;5.82;;;9.60;99.90;;;;;;5121215;28;20055;-80
2023/01/06 06:06:14;;;;;;;10.00;6.07;;;9.60;99.90;;;;;;5095119;28;20098;-84
2023/01/06 06:09:03;;;;;;;7.80;5.43;;;9.60;99.90;;;;;;5109148;28;20063;-87
2023/01/06 06:11:52;;;;;;;13.07;6.85;;;9.60;99.90;;;;;;5091013;28;20051;-79
2023/01/06 06:14:38;;;;;;;11.90;5.72;;;9.60;99.90;;;;;;5109367;28;20138;-88
2023/01/06 06:17:24;;;;;;;9.07;5.95;;;9.60;99.90;;;;;;5110050;28;20048;-84
2023/01/06 06:20:10;;;;;;;13.35;6.03;;;9.60;99.90;;;;;;5109981;28;20055;-86
2023/01/06 06:22:56;;;;;;;8.68;5.57;;;9.60;99.90;;;;;;5110630;28;20505;-87
2023/01/06 06:25:43;;;;;;;8.55;5.38;;;9.60;99.90;;;;;;5094622;28;20134;-82
2023/01/06 06:28:30;;;;;;;12.18;5.88;;;9.60;99.90;;;;;;5112651;28;20052;-80
2023/01/06 06:31:21;;;;;;;9.05;5.75;;;9.60;99.90;;;;;;5113567;28;20082;-82
2023/01/06 06:34:11;;;;;;;11.13;5.43;;;9.70;99.90;;;;;;5112965;28;20116;-80
2023/01/06 06:36:57;;;;;;;13.23;6.43;;;9.70;99.90;;;;;;5116233;28;20059;-86
2023/01/06 06:39:43;;;;;;;9.32;6.25;;;9.70;99.90;;;;;;5118383;28;20047;-85
2023/01/06 06:42:29;;;;;;;11.30;5.55;;;9.70;99.90;;;;;;5094296;28;20087;-81
2023/01/06 06:45:15;;;;;;;11.30;6.75;;;9.60;99.90;;;;;;5094085;28;20491;-85
2023/01/06 06:48:02;;;;;;;12.45;6.10;;;9.60;99.90;;;;;;5113226;28;20044;-81
2023/01/06 06:51:03;;;;;;;14.77;7.47;;;9.60;99.90;;;;;;5098283;28;20411;-82
2023/01/06 06:53:49;;;;;;;15.05;7.28;;;9.50;99.90;;;;;;5093323;28;20047;-85
2023/01/06 06:56:35;;;;;;;20.95;7.50;;;9.40;99.90;;;;;;5094109;28;20135;-87
2023/01/06 06:59:22;;;;;;;15.40;8.23;;;9.40;99.90;;;;;;5112523;28;20071;-86
2023/01/06 07:02:08;;;;;;;17.60;6.85;;;9.40;99.90;;;;;;5080313;28;20051;-83
2023/01/06 07:04:54;;;;;;;17.33;6.75;;;9.30;99.90;;;;;;5093439;28;20058;-83
2023/01/06 07:07:41;;;;;;;19.75;4.50;;;9.30;99.90;;;;;;5093638;28;20063;-80
2023/01/06 07:10:27;;;;;;;10.82;1.90;;;9.20;99.90;;;;;;5116856;28;20059;-79
2023/01/06 07:13:13;;;;;;;11.38;2.38;;;9.00;99.90;;;;;;5098808;28;20044;-82
2023/01/06 07:15:59;;;;;;;19.73;3.45;;;8.80;99.90;;;;;;5111928;28;20106;-82
2023/01/06 07:18:46;;;;;;;17.25;3.50;;;8.60;99.90;;;;;;5111417;28;20141;-86
2023/01/06 07:21:32;;;;;;;19.45;2.83;;;8.50;99.90;;;;;;5079611;28;20051;-80
2023/01/06 07:24:18;;;;;;;12.73;2.00;;;8.30;99.90;;;;;;5092538;28;20077;-79
2023/01/06 07:27:04;;;;;;;27.10;2.78;;;8.20;99.90;;;;;;5093357;28;20071;-82
2023/01/06 07:29:50;;;;;;;25.30;2.83;;;8.10;99.90;;;;;;5094244;28;20142;-79
2023/01/06 07:32:37;;;;;;;18.23;2.78;;;8.00;99.90;;;;;;5079434;28;20043;-79
2023/01/06 07:35:23;;;;;;;24.05;5.38;;;8.00;99.90;;;;;;5080232;28;20063;-81
2023/01/06 07:38:10;;;;;;;14.43;2.10;;;7.90;99.90;;;;;;5093395;28;20053;-79
2023/01/06 07:41:00;;;;;;;17.90;2.97;;;7.80;99.90;;;;;;5111585;28;20051;-79
2023/01/06 07:43:46;;;;;;;22.27;2.83;;;7.80;99.90;;;;;;5113390;28;20054;-85
2023/01/06 07:46:32;;;;;;;21.10;4.65;;;7.70;99.90;;;;;;5096929;28;20052;-84
2023/01/06 07:49:18;;;;;;;20.17;2.60;;;7.70;99.90;;;;;;5111389;28;20058;-80
2023/01/06 07:52:04;;;;;;;19.55;2.85;;;7.60;99.90;;;;;;5080851;28;20530;-83
2023/01/06 07:54:50;;;;;;;22.48;2.40;;;7.60;99.90;;;;;;5112098;28;20048;-80
2023/01/06 07:57:37;;;;;;;19.35;2.13;;;7.50;99.90;;;;;;5112084;28;20130;-82
2023/01/06 08:00:23;;;;;;;24.13;2.38;;;7.50;99.90;;;;;;5095115;28;20044;-83
2023/01/06 08:03:10;;;;;;;18.98;2.33;;;7.50;99.90;;;;;;5080121;28;20097;-85
2023/01/06 08:05:56;;;;;;;18.92;2.72;;;7.40;99.90;;;;;;5111846;28;20039;-84
2023/01/06 08:08:42;;;;;;;17.70;2.28;;;7.40;99.90;;;;;;5110995;28;20138;-81
2023/01/06 08:11:28;;;;;;;17.00;3.63;;;7.40;99.90;;;;;;5110433;28;20043;-83
2023/01/06 08:14:14;;;;;;;15.02;2.30;;;7.30;99.90;;;;;;5092522;28;20051;-80
2023/01/06 08:17:01;;;;;;;22.90;2.97;;;7.30;99.90;;;;;;5079242;28;20051;-81
2023/01/06 08:19:47;;;;;;;17.90;3.38;;;7.30;99.90;;;;;;5093514;28;20071;-80
2023/01/06 08:22:33;;;;;;;28.15;3.22;;;7.30;99.90;;;;;;5111104;28;20055;-83
2023/01/06 08:25:19;;;;;;;20.48;3.42;;;7.30;99.90;;;;;;5093498;28;20059;-82
2023/01/06 08:28:05;;;;;;;21.65;2.92;;;7.30;99.90;;;;;;5115566;28;20047;-78
2023/01/06 08:30:51;;;;;;;18.90;2.58;;;7.30;99.90;;;;;;5111686;28;20059;-83
2023/01/06 08:33:39;;;;;;;24.17;3.40;;;7.30;99.90;;;;;;5096146;28;20781;-83
2023/01/06 08:36:26;;;;;;;23.77;3.75;;;7.30;99.90;;;;;;5110116;28;20093;-81
2023/01/06 08:39:13;;;;;;;22.38;3.33;;;7.30;99.90;;;;;;5091742;28;20047;-83
2023/01/06 08:42:00;;;;;;;18.02;3.08;;;7.30;99.90;;;;;;5091952;28;20047;-81
2023/01/06 08:44:46;;;;;;;21.70;3.00;;;7.30;99.90;;;;;;5110316;28;20093;-78
2023/01/06 08:47:34;;;;;;;14.45;2.85;;;7.30;99.90;;;;;;5110657;28;20670;-80
2023/01/06 08:50:20;;;;;;;24.17;3.15;;;7.30;99.90;;;;;;5109922;28;20061;-79
2023/01/06 08:53:06;;;;;;;22.17;2.90;;;7.30;99.90;;;;;;5092473;28;20052;-81
2023/01/06 08:55:52;;;;;;;28.38;3.90;;;7.40;99.90;;;;;;5092213;28;20062;-80
2023/01/06 08:58:38;;;;;;;13.88;2.75;;;7.40;99.90;;;;;;5095243;28;20059;-82
2023/01/06 09:01:27;;;;;;;18.65;3.30;;;7.40;99.90;;;;;;5092574;28;20086;-82
2023/01/06 09:04:14;;;;;;;17.40;3.28;;;7.50;99.90;;;;;;5115626;28;20056;-80
2023/01/06 09:07:00;;;;;;;18.85;2.63;;;7.50;99.90;;;;;;5095890;28;20051;-80
2023/01/06 09:09:46;;;;;;;30.40;4.78;;;7.60;99.90;;;;;;5091422;28;20047;-80
2023/01/06 09:12:33;;;;;;;17.10;3.25;;;7.60;99.90;;;;;;5091382;28;20054;-81
2023/01/06 09:15:19;;;;;;;20.83;3.22;;;7.70;99.90;;;;;;5076800;28;20059;-78
2023/01/06 09:18:07;;;;;;;26.77;4.07;;;7.70;99.90;;;;;;5091577;28;20455;-83
2023/01/06 09:20:53;;;;;;;20.48;2.92;;;7.70;99.90;;;;;;5092037;28;20468;-80
2023/01/06 09:23:39;;;;;;;17.23;2.67;;;7.80;99.90;;;;;;5095929;28;20062;-84
2023/01/06 09:26:25;;;;;;;12.68;2.08;;;7.90;99.90;;;;;;5091651;28;20047;-84
2023/01/06 09:29:11;;;;;;;16.10;2.38;;;7.80;99.90;;;;;;5109687;28;20108;-81
2023/01/06 09:31:58;;;;;;;13.30;2.55;;;7.80;99.90;;;;;;5112479;28;20571;-83
2023/01/06 09:34:44;;;;;;;10.68;2.38;;;7.90;99.90;;;;;;5111200;28;20050;-82
2023/01/06 09:37:30;;;;;;;22.95;3.80;;;8.00;99.90;;;;;;5094813;28;20083;-81
2023/01/06 09:40:21;;;;;;;26.15;4.05;;;8.10;99.90;;;;;;5094793;28;20055;-82
2023/01/06 09:43:13;;;;;;;27.15;3.97;;;8.20;99.90;;;;;;5093385;28;20063;-82
2023/01/06 09:46:02;;;;;;;12.70;2.35;;;8.20;99.90;;;;;;5091865;28;20134;-79
2023/01/06 09:49:18;;;;;;;16.02;2.60;;;8.30;99.90;;;;;;5110859;28;20043;-83
2023/01/06 09:52:23;;;;;;;;;;;8.40;99.90;;;;;;5109999;28;20101;-80
2023/01/06 09:55:29;;;;;;;16.77;1.98;;;8.50;99.90;;;;;;5109969;28;19924;-80
2023/01/06 09:58:17;;;;;;;10.57;2.05;;;8.60;99.90;;;;;;5112334;28;20047;-80
2023/01/06 10:01:15;;;;;;;10.25;2.45;;;8.50;99.90;;;;;;5080916;28;20079;-78
2023/01/06 10:04:01;;;;;;;23.65;2.65;;;8.70;99.90;;;;;;5080337;28;20048;-80
2023/01/06 10:07:10;;;;;;;15.77;1.98;;;8.80;99.90;;;;;;5112617;28;20531;-81
2023/01/06 10:10:28;;;;;;;16.25;2.50;;;9.00;99.90;;;;;;5094712;28;20695;-81
2023/01/06 10:13:38;;;;;;;14.00;1.90;;;9.20;99.90;;;;;;5081624;28;20525;-78
2023/01/06 10:16:40;;;;;;;16.40;2.70;;;9.40;99.90;;;;;;5095460;28;20105;-79
2023/01/06 10:19:33;;;;;;;10.70;1.67;;;9.40;99.90;;;;;;5112317;28;20088;-80
2023/01/06 10:22:28;;;;;;;18.90;3.08;;;9.50;99.90;;;;;;5093833;28;20048;-79
2023/01/06 10:25:19;;;;;;;;;;;9.60;99.90;;;;;;5114035;28;20096;-82
2023/01/06 10:28:32;;;;;;;16.83;2.25;;;9.80;99.90;;;;;;5114147;28;19931;-80
2023/01/06 10:31:27;;;;;;;16.23;3.60;;;10.10;99.90;;;;;;5095236;28;20483;-80
2023/01/06 10:34:21;;;;;;;10.43;1.52;;;10.10;99.90;;;;;;5095020;28;20051;-80
2023/01/06 10:37:10;;;;;;;17.45;2.20;;;10.30;99.90;;;;;;5113029;28;20048;-81
2023/01/06 10:40:12;;;;;;;16.10;3.33;;;10.60;99.90;;;;;;5080314;28;20120;-81
2023/01/06 10:43:09;;;;;;;9.68;2.47;;;10.60;99.90;;;;;;5094268;28;20052;-80
2023/01/06 10:45:55;;;;;;;15.43;2.22;;;10.40;99.90;;;;;;5095622;28;20055;-83
2023/01/06 10:48:42;;;;;;;13.90;2.25;;;10.20;99.90;;;;;;5112832;28;20094;-81
2023/01/06 10:51:39;;;;;;;12.38;2.60;;;10.30;99.90;;;;;;5112666;28;20048;-82
2023/01/06 10:54:28;;;;;;;9.80;1.70;;;10.60;99.90;;;;;;5113209;28;20044;-80
2023/01/06 10:57:28;;;;;;;12.25;3.17;;;10.80;99.90;;;;;;5098831;28;20051;-80
2023/01/06 11:00:23;;;;;;;10.68;2.15;;;10.70;99.90;;;;;;5112346;28;20055;-79
2023/01/06 11:03:12;;;;;;;9.35;2.05;;;10.60;99.90;;;;;;5079748;28;20047;-80
2023/01/06 11:06:06;;;;;;;10.32;1.65;;;10.50;99.90;;;;;;5112071;28;20047;-80
2023/01/06 11:08:52;;;;;;;10.52;2.50;;;10.10;99.90;;;;;;5093665;28;20057;-80
2023/01/06 11:11:48;;;;;;;18.10;3.33;;;10.00;99.90;;;;;;5094484;28;20639;-81
2023/01/06 11:14:35;;;;;;;11.85;2.38;;;10.10;99.90;;;;;;5114360;28;20043;-81
2023/01/06 11:17:22;;;;;;;11.50;2.80;;;10.40;99.90;;;;;;5113207;28;20135;-80
2023/01/06 11:20:28;;;;;;;17.35;2.17;;;10.70;99.90;;;;;;5112374;28;20047;-82
2023/01/06 11:23:21;;;;;;;15.20;2.13;;;11.20;99.90;;;;;;5112374;28;20047;-81
2023/01/06 11:26:18;;;;;;;12.43;2.92;;;11.30;99.90;;;;;;5111978;28;20055;-80
2023/01/06 11:29:18;;;;;;;11.60;1.95;;;10.90;99.90;;;;;;5111419;28;20850;-84
2023/01/06 11:32:10;;;;;;;21.30;4.68;;;10.60;99.90;;;;;;5093008;28;20087;-83
2023/01/06 11:35:00;;;;;;;11.82;2.67;;;10.40;99.90;;;;;;5111575;28;20073;-81
2023/01/06 11:37:46;;;;;;;15.27;2.75;;;10.30;99.90;;;;;;5112264;28;20121;-82
2023/01/06 11:40:36;;;;;;;14.15;2.35;;;10.20;99.90;;;;;;5111786;28;20464;-81
2023/01/06 11:43:30;;;;;;;11.75;2.05;;;10.10;99.90;;;;;;5080441;28;20498;-85
2023/01/06 11:46:21;;;;;;;12.20;2.53;;;9.90;99.90;;;;;;5093429;28;20059;-82
2023/01/06 11:49:13;;;;;;;18.13;2.75;;;9.80;99.90;;;;;;5092707;28;20043;-83
2023/01/06 11:52:06;;;;;;;8.85;2.42;;;9.80;99.90;;;;;;5111234;28;20055;-85
2023/01/06 11:55:07;;;;;;;13.02;2.30;;;10.10;99.90;;;;;;5111990;28;20052;-83
2023/01/06 11:58:07;;;;;;;13.90;2.53;;;10.40;99.90;;;;;;5092533;28;20406;-79
2023/01/06 12:01:05;;;;;;;14.75;2.58;;;10.60;99.90;;;;;;5079157;28;20058;-79
2023/01/06 12:03:57;;;;;;;14.18;2.42;;;10.90;99.90;;;;;;5112681;28;20163;-79
2023/01/06 12:06:44;;;;;;;17.67;2.80;;;11.10;99.90;;;;;;5110712;28;20134;-79
2023/01/06 12:09:35;;;;;;;15.63;2.67;;;11.20;99.90;;;;;;5092511;28;20388;-82
2023/01/06 12:12:26;;;;;;;14.55;3.10;;;11.10;99.90;;;;;;5110860;28;20821;-84
2023/01/06 12:15:14;;;;;;;21.38;2.90;;;10.80;99.90;;;;;;5110357;28;20055;-82
2023/01/06 12:18:09;;;;;;;14.73;3.05;;;11.00;99.90;;;;;;5092733;28;20149;-79
2023/01/06 12:20:59;;;;;;;21.88;3.20;;;11.10;99.90;;;;;;5092172;28;20108;-84
2023/01/06 12:23:45;;;;;;;23.75;3.10;;;11.00;99.90;;;;;;5092535;28;20094;-84
2023/01/06 12:26:34;;;;;;;17.00;2.53;;;11.20;99.90;;;;;;5093996;28;20131;-79
2023/01/06 12:29:21;;;;;;;22.63;2.80;;;11.20;99.90;;;;;;5092653;28;20043;-81
2023/01/06 12:32:17;;;;;;;12.88;2.78;;;11.10;99.90;;;;;;5110617;28;20044;-80
2023/01/06 12:35:04;;;;;;;;;;;11.00;99.90;;;;;;5097090;28;20043;-79
2023/01/06 12:37:57;;;;;;;17.30;2.83;;;10.90;99.90;;;;;;5111616;28;20002;-78
2023/01/06 12:40:53;;;;;;;19.42;3.70;;;10.60;99.90;;;;;;5110747;28;20131;-81
2023/01/06 12:43:48;;;;;;;15.55;2.97;;;10.40;99.90;;;;;;5110738;28;20062;-80
2023/01/06 12:46:41;;;;;;;17.80;2.50;;;10.30;99.90;;;;;;5092354;28;20054;-81
2023/01/06 12:49:40;;;;;;;12.50;2.67;;;10.40;99.90;;;;;;5111484;28;20125;-82
2023/01/06 12:52:27;;;;;;;19.02;3.10;;;10.30;99.90;;;;;;5093831;28;20571;-81
2023/01/06 12:55:23;;;;;;;23.48;4.20;;;10.60;99.90;;;;;;5110694;28;20044;-80
2023/01/06 12:58:32;;;;;;;21.48;3.65;;;11.20;99.90;;;;;;5111180;28;20075;-84
2023/01/06 13:01:27;;;;;;;15.07;2.53;;;11.30;99.90;;;;;;5092919;28;20058;-79
2023/01/06 13:04:32;;;;;;;;;;;11.20;99.90;;;;;;5092947;28;20047;-81
2023/01/06 13:07:24;;;;;;;19.05;2.70;;;10.90;99.90;;;;;;5109615;28;19924;-82
2023/01/06 13:10:29;;;;;;;17.23;3.60;;;10.70;99.90;;;;;;5108889;28;20048;-80
2023/01/06 13:13:27;;;;;;;27.13;3.70;;;10.50;99.90;;;;;;5111061;28;20047;-84
2023/01/06 13:16:29;;;;;;;15.15;3.17;;;10.20;99.90;;;;;;5113611;28;20036;-80
2023/01/06 13:19:31;;;;;;;19.42;2.80;;;10.00;99.90;;;;;;5095206;28;20052;-82
2023/01/06 13:22:32;;;;;;;22.90;3.40;;;9.80;99.90;;;;;;5111684;28;20071;-80
2023/01/06 13:25:51;;;;;;;13.60;2.90;;;9.60;99.90;;;;;;5112130;28;20047;-79
2023/01/06 13:29:13;;;;;;;13.38;4.07;;;9.60;99.90;;;;;;5083878;28;20058;-79
2023/01/06 13:32:23;;;;;;;16.63;2.50;;;9.40;99.90;;;;;;5122756;28;20044;-79
2023/01/06 13:35:31;;;;;;;16.63;2.17;;;9.40;99.90;;;;;;5095617;28;20044;-80
2023/01/06 13:38:44;;;;;;;18.27;3.70;;;9.30;99.90;;;;;;5124106;28;20051;-79
2023/01/06 13:41:37;;;;;;;17.38;3.38;;;9.30;99.90;;;;;;5122082;28;20124;-78
2023/01/06 13:44:28;;;;;;;17.20;2.90;;;9.20;99.90;;;;;;5117396;28;20108;-79
2023/01/06 13:47:18;;;;;;;19.10;3.17;;;9.20;99.90;;;;;;5099729;28;20048;-78
2023/01/06 13:50:05;;;;;;;18.38;2.80;;;9.20;99.90;;;;;;5117545;28;20231;-82
2023/01/06 13:52:52;;;;;;;15.10;2.35;;;9.10;99.90;;;;;;5116872;28;20055;-80
2023/01/06 13:55:39;;;;;;;22.13;3.17;;;9.00;99.90;;;;;;5117537;28;20047;-81
2023/01/06 13:58:27;;;;;;;18.90;2.83;;;9.00;99.90;;;;;;5117673;28;20134;-79
2023/01/06 14:01:19;;;;;;;11.18;2.25;;;9.00;99.90;;;;;;5116042;28;20045;-80
2023/01/06 14:04:45;;;;;;;17.60;2.83;;;8.90;99.90;;;;;;5097569;28;20386;-79
2023/01/06 14:07:35;;;;;;;12.73;2.67;;;8.90;99.90;;;;;;5117635;28;20105;-78
2023/01/06 14:10:36;;;;;;;22.90;3.58;;;8.90;99.90;;;;;;5115768;28;20079;-84
2023/01/06 14:13:28;;;;;;;13.45;2.78;;;8.90;99.90;;;;;;5116563;28;20048;-78
2023/01/06 14:16:15;;;;;;;21.08;3.28;;;8.90;99.90;;;;;;5115981;28;20061;-80
2023/01/06 14:19:19;;;;;;;14.23;2.53;;;8.90;99.90;;;;;;5103157;28;20051;-79
2023/01/06 14:22:21;;;;;;;16.52;2.55;;;8.90;99.90;;;;;;5099812;28;20590;-78
2023/01/06 14:25:22;;;;;;;16.50;3.10;;;8.90;99.90;;;;;;5098185;28;20146;-81
2023/01/06 14:28:20;;;;;;;13.13;2.63;;;8.90;99.90;;;;;;5117890;28;20051;-80
2023/01/06 14:31:25;;;;;;;12.85;2.30;;;9.00;99.90;;;;;;5117111;28;20047;-83
2023/01/06 14:34:15;;;;;;;11.98;2.47;;;9.10;99.90;;;;;;5098269;28;20051;-81
2023/01/06 14:37:03;;;;;;;20.75;3.10;;;9.00;99.90;;;;;;5099612;28;20058;-80
2023/01/06 14:39:53;;;;;;;15.00;2.58;;;8.90;99.90;;;;;;5117987;27;20086;-83
2023/01/06 14:42:42;;;;;;;17.60;3.40;;;8.90;99.90;;;;;;5120117;28;20083;-80
2023/01/06 14:45:36;;;;;;;15.90;2.58;;;8.90;99.90;;;;;;5100559;28;20093;-79
2023/01/06 14:48:26;;;;;;;14.48;2.90;;;8.80;99.90;;;;;;5119034;28;20139;-81
2023/01/06 14:51:19;;;;;;;19.13;3.15;;;8.80;99.90;;;;;;5099008;28;20048;-80
2023/01/06 14:54:14;;;;;;;25.20;3.00;;;8.80;99.90;;;;;;5115691;28;20052;-80
2023/01/06 14:57:02;;;;;;;19.42;3.60;;;8.80;99.90;;;;;;5115390;28;20047;-83
2023/01/06 15:00:26;;;;;;;20.45;2.50;;;8.80;99.90;;;;;;5113486;28;20081;-82
2023/01/06 15:03:19;;;;;;;16.33;2.80;;;8.70;99.90;;;;;;4996588;28;20150;-83